createdAt,value
2022-08-07T18:52:33.923Z,25.72
2022-08-07T18:54:27.942Z,25.90
2022-08-07T18:57:30.665Z,26.14
2022-08-07T19:00:33.130Z,26.38
2022-08-07T19:03:04.277Z,26.66
2022-08-07T19:06:02.307Z,26.87
2022-08-07T19:08:47.137Z,27.10
2022-08-07T19:11:35.946Z,27.29
2022-08-07T19:14:17.136Z,27.49
2022-08-07T19:17:05.760Z,27.65
2022-08-07T19:19:50.976Z,27.82
2022-08-07T19:22:30.916Z,27.98
2022-08-07T19:25:06.468Z,28.11
2022-08-07T19:28:56.984Z,28.24
2022-08-07T19:31:00.137Z,28.36
2022-08-07T19:33:33.547Z,28.46
2022-08-07T19:36:05.836Z,28.55
2022-08-07T19:38:52.944Z,28.56
2022-08-07T19:41:44.190Z,28.58
2022-08-07T19:44:26.290Z,28.63
2022-08-07T19:47:08.018Z,28.68
2022-08-07T19:49:57.459Z,28.70
2022-08-07T19:52:30.075Z,28.70
2022-08-07T19:55:00.147Z,28.75
2022-08-07T19:58:03.626Z,28.80
2022-08-07T20:00:32.136Z,28.82
2022-08-07T20:03:35.155Z,28.88
2022-08-07T20:06:02.304Z,28.93
2022-08-07T20:08:35.163Z,28.97
2022-08-07T20:11:10.381Z,28.94
2022-08-07T20:13:44.923Z,28.95
2022-08-07T20:16:34.736Z,28.96
2022-08-07T20:19:10.621Z,28.94
2022-08-07T20:21:47.444Z,28.94
2022-08-07T20:24:21.091Z,28.93
2022-08-07T20:26:52.299Z,28.94
2022-08-07T20:29:49.520Z,28.95
2022-08-07T20:32:22.662Z,28.94
2022-08-07T20:34:57.727Z,28.95
2022-08-07T20:37:33.938Z,28.95
2022-08-07T20:40:31.132Z,28.96
2022-08-07T20:42:58.230Z,28.96
2022-08-07T20:46:28.295Z,28.95
2022-08-07T20:48:28.667Z,28.96
2022-08-07T20:51:01.492Z,28.99
2022-08-07T20:54:04.202Z,29.00
2022-08-07T20:56:26.016Z,28.99
2022-08-07T20:59:00.084Z,29.02
2022-08-07T21:01:45.180Z,29.02
2022-08-07T21:04:24.099Z,29.03
2022-08-07T21:06:57.423Z,29.04
2022-08-07T21:09:52.171Z,29.05
2022-08-07T21:12:28.582Z,29.03
2022-08-07T21:15:01.100Z,29.04
2022-08-07T21:18:01.929Z,29.05
2022-08-07T21:20:29.723Z,29.03
2022-08-07T21:23:07.307Z,29.03
2022-08-07T21:26:01.322Z,29.04
2022-08-07T21:28:48.306Z,29.02
2022-08-07T21:31:49.398Z,29.02
2022-08-07T21:34:26.782Z,29.02
2022-08-07T21:37:05.339Z,29.01
2022-08-07T21:39:51.714Z,29.03
2022-08-07T21:42:49.435Z,29.03
2022-08-07T21:46:08.908Z,29.04
2022-08-07T21:48:28.731Z,29.02
2022-08-07T21:51:19.235Z,29.03
2022-08-07T21:53:53.553Z,29.02
2022-08-07T21:56:36.458Z,29.04
2022-08-07T21:59:18.504Z,29.04
2022-08-07T22:02:11.074Z,29.04
2022-08-07T22:04:51.086Z,29.04
2022-08-07T22:07:48.679Z,29.05
2022-08-07T22:10:20.289Z,29.05
2022-08-07T22:12:54.495Z,29.06
2022-08-07T22:16:39.617Z,29.06
2022-08-07T22:18:25.380Z,29.07
2022-08-07T22:21:02.916Z,29.07
2022-08-07T22:23:40.403Z,29.07
2022-08-07T22:26:19.292Z,29.06
2022-08-07T22:28:55.011Z,29.06
2022-08-07T22:32:00.066Z,29.09
2022-08-07T22:34:52.902Z,29.05
2022-08-07T22:38:04.188Z,29.06
2022-08-07T22:40:29.798Z,29.05
2022-08-07T22:43:04.530Z,29.06
2022-08-07T22:46:40.648Z,29.07
2022-08-07T22:49:06.543Z,29.06
2022-08-07T22:52:04.207Z,29.07
2022-08-07T22:54:54.302Z,29.05
2022-08-07T22:57:46.844Z,29.07
2022-08-07T23:00:28.363Z,29.06
2022-08-07T23:03:12.167Z,29.07
2022-08-07T23:06:09.778Z,29.07
2022-08-07T23:08:53.026Z,29.07
2022-08-07T23:11:45.959Z,29.06
2022-08-07T23:14:39.423Z,29.07
2022-08-07T23:17:22.517Z,29.07
2022-08-07T23:20:52.784Z,29.08
2022-08-07T23:24:06.992Z,29.08
2022-08-07T23:26:56.182Z,29.03
2022-08-07T23:30:35.660Z,29.05
2022-08-07T23:34:35.328Z,29.05
2022-08-07T23:35:56.811Z,29.04
2022-08-07T23:38:42.705Z,29.04
2022-08-07T23:41:33.569Z,29.04
2022-08-07T23:44:33.585Z,29.07
2022-08-07T23:47:23.248Z,29.05
2022-08-07T23:50:24.141Z,29.07
2022-08-07T23:53:17.606Z,29.06
2022-08-07T23:55:56.101Z,29.05
2022-08-07T23:58:34.988Z,29.06
